Time;durP1;ratioP1;P1;durP2;ratioP2;P2;SDS_P1;SDS_P2;PMS_P1;PMS_P2;Temp;Humidity;BMP_temperature;BMP_pressure;BME280_temperature;BME280_humidity;BME280_pressure;Samples;Min_cycle;Max_cycle;Signal;HPM_P1;HPM_P2
2021/01/15 00:02:44;;;;;;;;;;;0.10;99.90;;;;;;5113743;22;19998;-88
2021/01/15 00:05:10;;;;;;;;;;;0.10;99.90;;;;;;5072665;28;20348;-89
2021/01/15 00:07:38;;;;;;;;;;;0.10;99.90;;;;;;5078794;28;20282;-89
2021/01/15 00:10:06;;;;;;;;;;;0.10;99.90;;;;;;5080475;28;19978;-90
2021/01/15 00:12:32;;;;;;;;;;;0.10;99.90;;;;;;5072644;28;19920;-87
2021/01/15 00:15:00;;;;;;;;;;;0.00;99.90;;;;;;5072876;28;19909;-88
2021/01/15 00:20:09;;;;;;;;;;;0.00;99.90;;;;;;5171450;22;19925;-88
2021/01/15 00:22:34;;;;;;;;;;;0.00;99.90;;;;;;5038817;28;19909;-89
2021/01/15 00:25:00;;;;;;;;;;;0.00;99.90;;;;;;5047207;28;20007;-88
2021/01/15 00:27:25;;;;;;;;;;;0.00;99.90;;;;;;5174651;22;20276;-80
2021/01/15 00:29:56;;;;;;;;;;;0.00;99.90;;;;;;5035133;28;19996;-80
2021/01/15 00:32:21;;;;;;;;;;;-0.10;99.90;;;;;;5050985;28;19919;-79
2021/01/15 00:34:47;;;;;;;;;;;-0.10;99.90;;;;;;5034178;28;19913;-79
2021/01/15 00:37:15;;;;;;;;;;;-0.10;99.90;;;;;;5164271;22;20005;-78
2021/01/15 00:39:40;;;;;;;;;;;-0.10;99.90;;;;;;5172093;23;20349;-81
2021/01/15 00:42:09;;;;;;;;;;;-0.10;99.90;;;;;;5045774;28;19974;-79
2021/01/15 00:44:34;;;;;;;;;;;-0.20;99.90;;;;;;5049001;28;19912;-80
2021/01/15 00:47:00;;;;;;;;;;;-0.20;99.90;;;;;;5053922;28;20286;-80
2021/01/15 00:49:25;;;;;;;;;;;-0.20;99.90;;;;;;5054330;28;19913;-80
2021/01/15 00:51:52;;;;;;;;;;;-0.20;99.90;;;;;;5053662;28;19912;-80
2021/01/15 00:54:17;;;;;;;;;;;-0.20;99.90;;;;;;5061952;28;19919;-79
2021/01/15 00:56:43;;;;;;;;;;;-0.20;99.90;;;;;;5068937;28;19916;-79
2021/01/15 00:59:09;;;;;;;;;;;-0.20;99.90;;;;;;5054544;28;19963;-79
2021/01/15 01:04:05;;;;;;;;;;;-0.20;99.90;;;;;;5293119;22;19929;-80
2021/01/15 01:06:31;;;;;;;;;;;-0.20;99.90;;;;;;5025031;28;19920;-77
2021/01/15 01:08:57;;;;;;;;;;;-0.30;99.90;;;;;;5027435;28;19913;-79
2021/01/15 01:11:25;;;;;;;;;;;-0.30;99.90;;;;;;5024608;28;19920;-79
2021/01/15 01:13:52;;;;;;;;;;;-0.30;99.90;;;;;;5032254;28;19919;-79
2021/01/15 01:16:19;;;;;;;;;;;-0.40;99.90;;;;;;5050929;28;19916;-79
2021/01/15 01:18:47;;;;;;;;;;;-0.40;99.90;;;;;;5032218;28;19913;-79
2021/01/15 01:21:13;;;;;;;;;;;-0.40;99.90;;;;;;5024767;28;20651;-79
2021/01/15 01:23:38;;;;;;;;;;;-0.40;99.90;;;;;;5031765;28;19913;-79
2021/01/15 01:26:04;;;;;;;;;;;-0.40;99.90;;;;;;5015898;28;19913;-78
2021/01/15 01:28:33;;;;;;;;;;;-0.50;99.90;;;;;;5031361;28;19913;-79
2021/01/15 01:31:04;;;;;;;;;;;-0.50;99.90;;;;;;4999920;28;19917;-79
2021/01/15 01:33:29;;;;;;;;;;;-0.50;99.90;;;;;;5026967;28;19957;-80
2021/01/15 01:35:55;;;;;;;;;;;-0.50;99.90;;;;;;5007538;28;20316;-79
2021/01/15 01:38:20;;;;;;;;;;;-0.50;99.90;;;;;;5026480;28;19917;-80
2021/01/15 01:40:46;;;;;;;;;;;-0.50;99.90;;;;;;5023250;28;19913;-79
2021/01/15 01:43:12;;;;;;;;;;;-0.50;99.90;;;;;;5135706;23;20355;-78
2021/01/15 01:45:38;;;;;;;;;;;-0.60;99.90;;;;;;5029988;28;19975;-80
2021/01/15 01:48:04;;;;;;;;;;;-0.60;99.90;;;;;;5030993;28;19924;-80
2021/01/15 01:50:30;;;;;;;;;;;-0.60;99.90;;;;;;5152678;22;19925;-77
2021/01/15 01:52:56;;;;;;;;;;;-0.60;99.90;;;;;;5029138;28;19913;-79
2021/01/15 01:55:21;;;;;;;;;;;-0.70;99.90;;;;;;5031099;28;19917;-80
2021/01/15 01:57:48;;;;;;;;;;;-0.60;99.90;;;;;;5029651;28;19917;-79
2021/01/15 02:02:43;;;;;;;;;;;-0.70;99.90;;;;;;5079414;28;19928;-78
2021/01/15 02:05:09;;;;;;;;;;;-0.70;99.90;;;;;;5088006;28;19919;-80
2021/01/15 02:07:34;;;;;;;;;;;-0.80;99.90;;;;;;5052537;28;19916;-80
2021/01/15 02:10:04;;;;;;;;;;;-0.80;99.90;;;;;;5067403;28;19912;-79
2021/01/15 02:12:29;;;;;;;;;;;-0.80;99.90;;;;;;5090421;28;19912;-79
2021/01/15 02:14:55;;;;;;;;;;;-0.80;99.90;;;;;;5072446;28;19961;-79
2021/01/15 02:17:25;;;;;;;;;;;-0.80;99.90;;;;;;5071909;28;20433;-79
2021/01/15 02:19:53;;;;;;;;;;;-0.80;99.90;;;;;;5072483;28;19919;-77
2021/01/15 02:22:34;;;;;;;;;;;-0.80;99.90;;;;;;5161267;22;19929;-89
2021/01/15 02:25:03;;;;;;;;;;;-0.70;99.90;;;;;;5146593;22;19923;-89
2021/01/15 02:27:47;;;;;;;;;;;-0.80;99.90;;;;;;5031968;28;19917;-86
2021/01/15 02:30:31;;;;;;;;;;;-0.80;99.90;;;;;;5014677;28;20031;-88
2021/01/15 02:33:03;;;;;;;;;;;-0.80;99.90;;;;;;5014343;28;19913;-90
2021/01/15 02:35:34;;;;;;;;;;;-0.90;99.90;;;;;;5025178;28;19964;-88
2021/01/15 02:38:13;;;;;;;;;;;-0.80;99.90;;;;;;5020621;28;19915;-87
2021/01/15 02:40:58;;;;;;;;;;;-0.90;99.90;;;;;;5022537;28;20013;-89
2021/01/15 02:43:26;;;;;;;;;;;-0.90;99.90;;;;;;5014298;28;19909;-86
2021/01/15 02:45:53;;;;;;;;;;;-0.90;99.90;;;;;;5013778;28;20327;-89
2021/01/15 02:48:19;;;;;;;;;;;-0.90;99.90;;;;;;5014508;28;19916;-89
2021/01/15 02:50:47;;;;;;;;;;;-0.90;99.90;;;;;;5014170;28;19914;-87
2021/01/15 02:53:18;;;;;;;;;;;-1.00;99.90;;;;;;5013504;28;19956;-88
2021/01/15 02:55:44;;;;;;;;;;;-1.00;99.90;;;;;;5013494;28;20338;-89
2021/01/15 02:58:15;;;;;;;;;;;-0.90;99.90;;;;;;5013498;28;20002;-88
2021/01/15 03:00:41;;;;;;;;;;;-1.00;99.90;;;;;;5013635;28;19920;-88
2021/01/15 03:03:13;;;;;;;;;;;-1.00;99.90;;;;;;5012775;28;19913;-88
2021/01/15 03:05:57;;;;;;;;;;;-1.00;99.90;;;;;;5000726;28;19913;-88
2021/01/15 03:08:24;;;;;;;;;;;-1.00;99.90;;;;;;5013311;28;20244;-86
2021/01/15 03:10:53;;;;;;;;;;;-1.00;99.90;;;;;;5013989;28;19913;-88
2021/01/15 03:13:22;;;;;;;;;;;-1.10;99.90;;;;;;5145684;22;19929;-80
2021/01/15 03:15:49;;;;;;;;;;;-1.10;99.90;;;;;;4999058;28;19925;-79
2021/01/15 03:18:17;;;;;;;;;;;-1.10;99.90;;;;;;5011742;28;19924;-79
2021/01/15 03:20:43;;;;;;;;;;;-1.10;99.90;;;;;;5162965;22;20023;-78
2021/01/15 03:23:08;;;;;;;;;;;-1.10;99.90;;;;;;5171067;22;20055;-79
2021/01/15 03:25:34;;;;;;;;;;;-1.10;99.90;;;;;;5055238;28;20378;-77
2021/01/15 03:27:59;;;;;;;;;;;-1.10;99.90;;;;;;5265426;22;19929;-77
2021/01/15 03:30:27;;;;;;;;;;;-1.10;99.90;;;;;;5132693;23;20390;-79
2021/01/15 03:32:57;;;;;;;;;;;-1.10;99.90;;;;;;5027870;28;19921;-79
2021/01/15 03:35:23;;;;;;;;;;;-1.10;99.90;;;;;;5018778;28;20376;-79
2021/01/15 03:37:59;;;;;;;;;;;-1.20;99.90;;;;;;5023371;28;19919;-78
2021/01/15 03:40:44;;;;;;;;;;;-1.20;99.90;;;;;;5028195;28;19913;-79
2021/01/15 03:43:13;;;;;;;;;;;-1.20;99.90;;;;;;5027701;28;19913;-78
2021/01/15 03:45:39;;;;;;;;;;;-1.20;99.90;;;;;;5027778;28;19920;-78
2021/01/15 03:48:05;;;;;;;;;;;-1.30;99.90;;;;;;5028910;28;20408;-79
2021/01/15 03:50:30;;;;;;;;;;;-1.30;99.90;;;;;;5028264;28;19993;-78
2021/01/15 03:52:56;;;;;;;;;;;-1.30;99.90;;;;;;5030624;28;20325;-80
2021/01/15 03:55:22;;;;;;;;;;;-1.30;99.90;;;;;;5031542;28;19921;-78
2021/01/15 03:57:49;;;;;;;;;;;-1.30;99.90;;;;;;5028822;28;20283;-80
2021/01/15 04:00:17;;;;;;;;;;;-1.30;99.90;;;;;;5022999;28;19996;-79
2021/01/15 04:02:43;;;;;;;;;;;-1.30;99.90;;;;;;5017375;28;20039;-78
2021/01/15 04:05:09;;;;;;;;;;;-1.40;99.90;;;;;;5032473;28;20019;-78
2021/01/15 04:07:34;;;;;;;;;;;-1.40;99.90;;;;;;5031107;28;20387;-77
2021/01/15 04:10:00;;;;;;;;;;;-1.40;99.90;;;;;;5031867;28;20295;-80
2021/01/15 04:12:25;;;;;;;;;;;-1.40;99.90;;;;;;5031077;28;19913;-78
2021/01/15 04:14:51;;;;;;;;;;;-1.40;99.90;;;;;;5031497;28;19913;-78
2021/01/15 04:17:23;;;;;;;;;;;-1.50;99.90;;;;;;5031426;28;19921;-78
2021/01/15 04:19:49;;;;;;;;;;;-1.40;99.90;;;;;;5031641;28;20659;-78
2021/01/15 04:22:14;;;;;;;;;;;-1.40;99.90;;;;;;5028765;28;19967;-78
2021/01/15 04:24:42;;;;;;;;;;;-1.40;99.90;;;;;;5030907;28;19913;-78
2021/01/15 04:27:08;;;;;;;;;;;-1.40;99.90;;;;;;5030624;28;19913;-78
2021/01/15 04:29:34;;;;;;;;;;;-1.40;99.90;;;;;;5030771;28;19932;-78
2021/01/15 04:32:00;;;;;;;;;;;-1.40;99.90;;;;;;5149604;23;19928;-87
2021/01/15 04:34:28;;;;;;;;;;;-1.50;99.90;;;;;;5052735;28;19920;-88
2021/01/15 04:36:57;;;;;;;;;;;-1.50;99.90;;;;;;5052225;28;19921;-88
2021/01/15 04:39:22;;;;;;;;;;;-1.60;99.90;;;;;;5053837;28;19917;-88
2021/01/15 04:41:48;;;;;;;;;;;-1.60;99.90;;;;;;5038595;28;19924;-88
2021/01/15 04:44:16;;;;;;;;;;;-1.60;99.90;;;;;;5052157;28;19920;-89
2021/01/15 04:46:41;;;;;;;;;;;-1.60;99.90;;;;;;5051751;28;19917;-87
2021/01/15 04:49:11;;;;;;;;;;;-1.60;99.90;;;;;;5052316;28;19916;-88
2021/01/15 04:51:40;;;;;;;;;;;-1.60;99.90;;;;;;5052074;28;20012;-88
2021/01/15 04:54:06;;;;;;;;;;;-1.60;99.90;;;;;;5052362;28;19913;-88
2021/01/15 04:56:37;;;;;;;;;;;-1.70;99.90;;;;;;5051843;28;19927;-89
2021/01/15 04:59:08;;;;;;;;;;;-1.70;99.90;;;;;;5044279;28;19913;-87
2021/01/15 05:01:34;;;;;;;;;;;-1.60;99.90;;;;;;5038480;28;20023;-88
2021/01/15 05:04:04;;;;;;;;;;;-1.70;99.90;;;;;;5046231;28;19995;-89
2021/01/15 05:06:36;;;;;;;;;;;-1.70;99.90;;;;;;5050890;28;19913;-89
2021/01/15 05:09:02;;;;;;;;;;;-1.80;99.90;;;;;;5028876;28;19929;-88
2021/01/15 05:11:29;;;;;;;;;;;-1.80;99.90;;;;;;5047704;28;19955;-89
2021/01/15 05:13:57;;;;;;;;;;;-1.80;99.90;;;;;;5065411;28;19916;-87
2021/01/15 05:16:23;;;;;;;;;;;-1.80;99.90;;;;;;5051397;28;20004;-90
2021/01/15 05:18:49;;;;;;;;;;;-1.80;99.90;;;;;;5046115;28;19992;-88
2021/01/15 05:21:17;;;;;;;;;;;-1.80;99.90;;;;;;5049218;28;19913;-90
2021/01/15 05:23:44;;;;;;;;;;;-1.80;99.90;;;;;;5045727;28;19913;-89
2021/01/15 05:26:09;;;;;;;;;;;-1.80;99.90;;;;;;5049899;28;19917;-90
2021/01/15 05:28:40;;;;;;;;;;;-1.80;99.90;;;;;;5050553;28;19913;-89
2021/01/15 05:31:06;;;;;;;;;;;-1.80;99.90;;;;;;5054305;28;20073;-89
2021/01/15 05:33:32;;;;;;;;;;;-1.90;99.90;;;;;;5054645;28;20020;-89
2021/01/15 05:35:58;;;;;;;;;;;-1.90;99.90;;;;;;5062363;28;19927;-88
2021/01/15 05:38:25;;;;;;;;;;;-1.90;99.90;;;;;;5054159;28;19912;-88
2021/01/15 05:40:52;;;;;;;;;;;-1.90;99.90;;;;;;5054551;28;19913;-88
2021/01/15 05:43:20;;;;;;;;;;;-2.00;99.90;;;;;;5054364;28;19923;-88
2021/01/15 05:46:04;;;;;;;;;;;-2.00;99.90;;;;;;5054763;28;20003;-90
2021/01/15 05:48:30;;;;;;;;;;;-2.00;99.90;;;;;;5054014;28;19958;-87
2021/01/15 05:50:56;;;;;;;;;;;-2.00;99.90;;;;;;5072494;28;19908;-87
2021/01/15 05:53:21;;;;;;;;;;;-2.00;99.90;;;;;;5054635;28;19920;-88
2021/01/15 05:55:57;;;;;;;;;;;-2.00;99.90;;;;;;5054399;28;19920;-90
2021/01/15 05:58:27;;;;;;;;;;;-2.00;99.90;;;;;;5053657;28;19958;-91
2021/01/15 06:00:55;;;;;;;;;;;-2.00;99.90;;;;;;5054482;28;20275;-89
2021/01/15 06:03:22;;;;;;;;;;;-2.00;99.90;;;;;;5053872;28;19975;-90
2021/01/15 06:05:49;;;;;;;;;;;-2.10;99.90;;;;;;5071624;28;19916;-89
2021/01/15 06:08:15;;;;;;;;;;;-2.10;99.90;;;;;;5053607;28;20345;-87
2021/01/15 06:10:41;;;;;;;;;;;-2.10;99.90;;;;;;5152035;22;20016;-80
2021/01/15 06:13:10;;;;;;;;;;;-2.10;99.90;;;;;;5037208;28;19921;-79
2021/01/15 06:15:45;;;;;;;;;;;-2.10;99.90;;;;;;5051118;28;19925;-79
2021/01/15 06:18:17;;;;;;;;;;;-2.10;99.90;;;;;;5038336;28;19912;-79
2021/01/15 06:20:43;;;;;;;;;;;-2.10;99.90;;;;;;5060907;28;19913;-78
2021/01/15 06:23:13;;;;;;;;;;;-2.10;99.90;;;;;;5017173;28;19909;-77
2021/01/15 06:25:54;;;;;;;;;;;-2.10;99.90;;;;;;5023752;28;19963;-77
2021/01/15 06:30:59;;;;;;;;;;;-2.10;99.90;;;;;;5029126;28;20383;-78
2021/01/15 06:33:25;;;;;;;;;;;-2.10;99.90;;;;;;5030654;28;19917;-78
2021/01/15 06:35:50;;;;;;;;;;;-2.10;99.90;;;;;;5012101;28;19921;-79
2021/01/15 06:38:16;;;;;;;;;;;-2.10;99.90;;;;;;5012030;28;19913;-81
2021/01/15 06:40:46;;;;;;;;;;;-2.10;99.90;;;;;;5011877;28;20085;-78
2021/01/15 06:43:19;;;;;;;;;;;-2.10;99.90;;;;;;5011952;28;19913;-79
2021/01/15 06:45:48;;;;;;;;;;;-2.10;99.90;;;;;;5012445;28;19919;-79
2021/01/15 06:48:17;;;;;;;;;;;-2.10;99.90;;;;;;5029282;28;19924;-78
2021/01/15 06:50:46;;;;;;;;;;;-2.00;99.90;;;;;;5012286;28;19917;-78
2021/01/15 06:53:33;;;;;;;;;;;-2.00;99.90;;;;;;5029729;28;19913;-78
2021/01/15 06:56:02;;;;;;;;;;;-2.10;99.90;;;;;;5028846;28;19920;-78
2021/01/15 06:58:38;;;;;;;;;;;-2.20;99.90;;;;;;5029501;28;19920;-78
2021/01/15 07:01:17;;;;;;;;;;;-2.20;99.90;;;;;;5006233;28;19921;-78
2021/01/15 07:04:01;;;;;;;;;;;-2.10;99.90;;;;;;5005883;28;19917;-79
2021/01/15 07:06:28;;;;;;;;;;;-2.10;99.90;;;;;;5006525;28;19992;-77
2021/01/15 07:08:57;;;;;;;;;;;-2.10;99.90;;;;;;5011457;28;19920;-77
2021/01/15 07:11:26;;;;;;;;;;;-2.10;99.90;;;;;;5011754;28;19917;-79
2021/01/15 07:13:55;;;;;;;;;;;-2.10;99.90;;;;;;5011797;28;19963;-80
2021/01/15 07:16:41;;;;;;;;;;;-2.20;99.90;;;;;;5011722;28;19975;-79
2021/01/15 07:19:16;;;;;;;;;;;-2.20;99.90;;;;;;5010620;28;20376;-80
2021/01/15 07:22:04;;;;;;;;;;;-2.20;99.90;;;;;;5294624;22;19972;-78
2021/01/15 07:24:32;;;;;;;;;;;-2.20;99.90;;;;;;5011012;28;20522;-78
2021/01/15 07:26:58;;;;;;;;;;;-2.10;99.90;;;;;;5016232;28;20190;-78
2021/01/15 07:29:24;;;;;;;;;;;-2.00;99.90;;;;;;5033451;28;20059;-81
2021/01/15 07:31:58;;;;;;;;;;;-2.10;99.90;;;;;;5015993;28;19924;-79
2021/01/15 07:34:24;;;;;;;;;;;-2.10;99.90;;;;;;5032615;28;19936;-78
2021/01/15 07:39:27;;;;;;;;;;;-2.10;99.90;;;;;;5176190;22;19925;-80
2021/01/15 07:41:53;;;;;;;;;;;-2.00;99.90;;;;;;5035128;28;19963;-81
2021/01/15 07:44:22;;;;;;;;;;;-2.00;99.90;;;;;;5035190;28;19962;-80
2021/01/15 07:46:48;;;;;;;;;;;-2.00;99.90;;;;;;5034872;28;20391;-82
2021/01/15 07:49:13;;;;;;;;;;;-2.00;99.90;;;;;;5034614;28;20015;-78
2021/01/15 07:51:44;;;;;;;;;;;-2.10;99.90;;;;;;5035005;28;19920;-80
2021/01/15 07:54:31;;;;;;;;;;;-2.10;99.90;;;;;;5035279;28;20398;-80
2021/01/15 07:57:09;;;;;;;;;;;-2.10;99.90;;;;;;5052610;28;19921;-79
2021/01/15 07:59:37;;;;;;;;;;;-2.10;99.90;;;;;;5035445;28;19935;-80
2021/01/15 08:02:03;;;;;;;;;;;-2.10;99.90;;;;;;5034948;28;19916;-80
2021/01/15 08:04:29;;;;;;;;;;;-2.10;99.90;;;;;;5046981;28;19959;-78
2021/01/15 08:06:58;;;;;;;;;;;-2.00;99.90;;;;;;5026428;28;20004;-77
2021/01/15 08:09:26;;;;;;;;;;;-1.90;99.90;;;;;;5009403;28;20283;-79
2021/01/15 08:11:57;;;;;;;;;;;-1.90;99.90;;;;;;5048130;28;20359;-79
2021/01/15 08:14:23;;;;;;;;;;;-1.80;99.90;;;;;;5053141;28;20013;-80
2021/01/15 08:16:49;;;;;;;;;;;-1.90;99.90;;;;;;5034698;28;20003;-78
2021/01/15 08:19:16;;;;;;;;;;;-1.90;99.90;;;;;;5035028;28;19966;-79
2021/01/15 08:21:43;;;;;;;;;;;-1.90;99.90;;;;;;5026214;28;19919;-79
2021/01/15 08:24:09;;;;;;;;;;;-1.90;99.90;;;;;;5034324;28;19946;-79
2021/01/15 08:26:53;;;;;;;;;;;-1.90;99.90;;;;;;5033084;28;19917;-78
2021/01/15 08:29:21;;;;;;;;;;;-1.80;99.90;;;;;;5047369;28;20352;-80
2021/01/15 08:31:49;;;;;;;;;;;-1.80;99.90;;;;;;5028800;28;19955;-77
2021/01/15 08:34:16;;;;;;;;;;;-1.80;99.90;;;;;;5031226;28;19913;-79
2021/01/15 08:36:43;;;;;;;;;;;-1.80;99.90;;;;;;5030773;28;19927;-78
2021/01/15 08:39:09;;;;;;;;;;;-1.80;99.90;;;;;;5030690;28;19970;-81
2021/01/15 08:41:38;;;;;;;;;;;-1.70;99.90;;;;;;5031137;28;19913;-78
2021/01/15 08:44:05;;;;;;;;;;;-1.80;99.90;;;;;;5031070;28;19994;-79
2021/01/15 08:46:31;;;;;;;;;;;-1.70;99.90;;;;;;5033447;28;19925;-79
2021/01/15 08:48:58;;;;;;;;;;;-1.70;99.90;;;;;;5030738;28;20639;-77
2021/01/15 08:51:25;;;;;;;;;;;-1.60;99.90;;;;;;5030816;28;19956;-81
2021/01/15 08:54:04;;;;;;;;;;;-1.60;99.90;;;;;;5033445;28;20025;-79
2021/01/15 08:56:37;;;;;;;;;;;-1.60;99.90;;;;;;5032901;28;19927;-78
2021/01/15 08:59:03;;;;;;;;;;;-1.70;99.90;;;;;;5027201;28;19912;-79
2021/01/15 09:01:33;;;;;;;;;;;-1.70;99.90;;;;;;5033919;28;20407;-77
2021/01/15 09:04:06;;;;;;;;;;;-1.70;99.90;;;;;;5051658;28;19913;-78
2021/01/15 09:06:34;;;;;;;;;;;-1.70;99.90;;;;;;5051503;28;19943;-80
2021/01/15 09:09:03;;;;;;;;;;;-1.60;99.90;;;;;;5032016;28;19917;-80
2021/01/15 09:11:30;;;;;;;;;;;-1.60;99.90;;;;;;5031488;28;19920;-79
2021/01/15 09:13:56;;;;;;;;;;;-1.60;99.90;;;;;;5033352;28;20515;-79
2021/01/15 09:16:23;;;;;;;;;;;-1.60;99.90;;;;;;5033413;28;19947;-78
2021/01/15 09:21:19;;;;;;;;;;;-1.40;99.90;;;;;;5286742;22;20626;-91
2021/01/15 09:23:47;;;;;;;;;;;-1.40;99.90;;;;;;5088021;28;19927;-90
2021/01/15 09:26:15;;;;;;;;;;;-1.40;99.90;;;;;;5073632;28;19958;-90
2021/01/15 09:28:40;;;;;;;;;;;-1.40;99.90;;;;;;5071722;28;19909;-92
2021/01/15 09:31:06;;;;;;;;;;;-1.40;99.90;;;;;;5081374;28;20316;-89
2021/01/15 09:33:32;;;;;;;;;;;-1.40;99.90;;;;;;5078990;28;19909;-88
2021/01/15 09:36:00;;;;;;;;;;;-1.30;99.90;;;;;;5184097;22;19936;-83
2021/01/15 09:38:25;;;;;;;;;;;-1.30;99.90;;;;;;5034169;28;19936;-84
2021/01/15 09:40:53;;;;;;;;;;;-1.30;99.90;;;;;;5034926;28;20352;-83
2021/01/15 09:43:20;;;;;;;;;;;-1.30;99.90;;;;;;5034122;28;19957;-83
2021/01/15 09:45:49;;;;;;;;;;;-1.30;99.90;;;;;;5162413;22;19963;-83
2021/01/15 09:48:14;;;;;;;;;;;-1.20;99.90;;;;;;5067368;28;20197;-84
2021/01/15 09:50:40;;;;;;;;;;;-1.20;99.90;;;;;;5178869;22;20023;-89
2021/01/15 09:53:06;;;;;;;;;;;-1.20;99.90;;;;;;5072137;28;19916;-92
2021/01/15 09:55:34;;;;;;;;;;;-1.20;99.90;;;;;;5072604;28;20290;-89
2021/01/15 09:58:00;;;;;;;;;;;-1.10;99.90;;;;;;5070821;28;19923;-90
2021/01/15 10:00:25;;;;;;;;;;;-1.10;99.90;;;;;;5067971;28;20450;-89
2021/01/15 10:02:51;;;;;;;;;;;-1.10;99.90;;;;;;5064932;28;20019;-88
2021/01/15 10:05:18;;;;;;;;;;;-1.10;99.90;;;;;;5071589;28;19916;-91
2021/01/15 10:07:44;;;;;;;;;;;-1.00;99.90;;;;;;5057417;28;19958;-89
2021/01/15 10:10:10;;;;;;;;;;;-1.00;99.90;;;;;;5064354;28;19908;-90
2021/01/15 10:12:36;;;;;;;;;;;-1.00;99.90;;;;;;5175022;22;19935;-91
2021/01/15 10:15:01;;;;;;;;;;;-0.80;99.90;;;;;;5032120;28;19909;-89
2021/01/15 10:17:27;;;;;;;;;;;-0.90;99.90;;;;;;5033237;28;20346;-89
2021/01/15 10:19:53;;;;;;;;;;;-0.80;99.90;;;;;;5036648;28;19909;-91
2021/01/15 10:22:18;;;;;;;;;;;-0.80;99.90;;;;;;5033229;28;19913;-90
2021/01/15 10:24:46;;;;;;;;;;;-0.90;99.90;;;;;;5027255;28;20019;-90
2021/01/15 10:27:17;;;;;;;;;;;-0.80;99.90;;;;;;5037951;28;19915;-88
2021/01/15 10:29:42;;;;;;;;;;;-0.70;99.90;;;;;;5030516;28;19913;-90
2021/01/15 10:32:08;;;;;;;;;;;-0.80;99.90;;;;;;5041665;28;20079;-89
2021/01/15 10:34:36;;;;;;;;;;;-0.80;99.90;;;;;;5047641;28;20018;-91
2021/01/15 10:37:04;;;;;;;;;;;-0.80;99.90;;;;;;5041042;28;19921;-90
2021/01/15 10:39:35;;;;;;;;;;;-0.70;99.90;;;;;;5045252;28;20378;-89
2021/01/15 10:42:01;;;;;;;;;;;-0.70;99.90;;;;;;5035133;28;19912;-89
2021/01/15 10:44:29;;;;;;;;;;;-0.70;99.90;;;;;;5035753;28;20021;-89
2021/01/15 10:46:54;;;;;;;;;;;-0.60;99.90;;;;;;5035221;28;19909;-89
2021/01/15 10:49:21;;;;;;;;;;;-0.60;99.90;;;;;;5035153;28;19913;-88
2021/01/15 10:51:59;;;;;;;;;;;-0.50;99.90;;;;;;5052234;28;20091;-91
2021/01/15 10:54:58;;;;;;;;;;;;;;;;;;;;;
2021/01/15 10:57:24;;;;;;;;;;;-0.50;99.90;;;;;;5060830;28;19924;-90
2021/01/15 11:00:08;;;;;;;;;;;-0.40;99.90;;;;;;5029195;28;20008;-90
2021/01/15 11:05:14;;;;;;;;;;;-0.50;99.90;;;;;;5040681;28;19948;-87
2021/01/15 11:07:44;;;;;;;;;;;-0.50;99.90;;;;;;5028836;28;19912;-87
2021/01/15 11:12:45;;;;;;;;;;;-0.50;99.90;;;;;;5078906;23;20278;-84
2021/01/15 11:15:11;;;;;;;;;;;-0.40;99.90;;;;;;5168863;22;20383;-83
2021/01/15 11:17:38;;;;;;;;;;;-0.30;99.90;;;;;;5143738;23;20144;-84
2021/01/15 11:20:05;;;;;;;;;;;-0.30;99.90;;;;;;5032951;28;19917;-84
2021/01/15 11:22:31;;;;;;;;;;;-0.20;99.90;;;;;;5040977;28;19970;-83
2021/01/15 11:24:57;;;;;;;;;;;-0.30;99.90;;;;;;5035029;28;19975;-84
2021/01/15 11:27:25;;;;;;;;;;;-0.30;99.90;;;;;;5041354;28;19916;-84
2021/01/15 11:29:55;;;;;;;;;;;-0.20;99.90;;;;;;5018480;28;19920;-84
2021/01/15 11:32:21;;;;;;;;;;;-0.20;99.90;;;;;;5045414;28;19918;-83
2021/01/15 11:34:47;;;;;;;;;;;-0.20;99.90;;;;;;5033054;28;19921;-84
2021/01/15 11:37:15;;;;;;;;;;;-0.20;99.90;;;;;;5032269;28;19916;-83
2021/01/15 11:39:41;;;;;;;;;;;-0.20;99.90;;;;;;5032951;28;20312;-84
2021/01/15 11:42:07;;;;;;;;;;;-0.20;99.90;;;;;;5042056;28;19917;-84
2021/01/15 11:44:38;;;;;;;;;;;-0.10;99.90;;;;;;5037064;28;19940;-84
2021/01/15 11:47:05;;;;;;;;;;;-0.10;99.90;;;;;;5042222;28;19989;-84
2021/01/15 11:49:35;;;;;;;;;;;-0.10;99.90;;;;;;5031544;28;19913;-84
2021/01/15 11:52:07;;;;;;;;;;;0.00;99.90;;;;;;5031528;28;19955;-83
2021/01/15 11:54:37;;;;;;;;;;;0.00;99.90;;;;;;5044898;28;19920;-83
2021/01/15 11:57:06;;;;;;;;;;;0.00;99.90;;;;;;5030166;28;19947;-83
2021/01/15 11:59:36;;;;;;;;;;;0.00;99.90;;;;;;5029166;28;19921;-83
2021/01/15 12:02:03;;;;;;;;;;;0.00;99.90;;;;;;5047300;28;20008;-83
2021/01/15 12:04:32;;;;;;;;;;;0.00;99.90;;;;;;5042652;28;19912;-83
2021/01/15 12:06:57;;;;;;;;;;;0.10;99.90;;;;;;5032990;28;19963;-83
2021/01/15 12:09:23;;;;;;;;;;;0.10;99.90;;;;;;5146402;23;19956;-89
2021/01/15 12:11:49;;;;;;;;;;;0.10;99.90;;;;;;5047272;28;20356;-90
2021/01/15 12:14:25;;;;;;;;;;;0.10;99.90;;;;;;5074453;28;20344;-90
2021/01/15 12:16:50;;;;;;;;;;;0.10;99.90;;;;;;5036374;28;20287;-90
2021/01/15 12:19:16;;;;;;;;;;;0.10;99.90;;;;;;5036757;28;19913;-91
2021/01/15 12:21:42;;;;;;;;;;;0.10;99.90;;;;;;5064665;28;19913;-89
2021/01/15 12:24:08;;;;;;;;;;;0.20;99.90;;;;;;5048656;28;20014;-89
2021/01/15 12:26:38;;;;;;;;;;;0.30;99.90;;;;;;5056936;28;19913;-88
2021/01/15 12:29:05;;;;;;;;;;;0.40;99.90;;;;;;5048538;28;19941;-91
2021/01/15 12:31:31;;;;;;;;;;;0.30;99.90;;;;;;5073705;28;20274;-90
2021/01/15 12:33:58;;;;;;;;;;;0.30;99.90;;;;;;5073617;28;19913;-90
2021/01/15 12:36:33;;;;;;;;;;;0.30;99.90;;;;;;5075873;28;19912;-91
2021/01/15 12:39:01;;;;;;;;;;;0.40;99.90;;;;;;5064825;28;19917;-88
2021/01/15 12:41:33;;;;;;;;;;;0.50;99.90;;;;;;5056132;28;20271;-90
2021/01/15 13:02:34;;;;;;;;;;;0.40;99.90;;;;;;5062725;22;19931;-88
2021/01/15 13:05:00;;;;;;;;;;;0.50;99.90;;;;;;5004694;28;19913;-90
2021/01/15 13:07:25;;;;;;;;;;;0.50;99.90;;;;;;5002433;28;19909;-89
2021/01/15 13:09:53;;;;;;;;;;;0.50;99.90;;;;;;5009585;28;19967;-91
2021/01/15 13:12:19;;;;;;;;;;;0.60;99.90;;;;;;4999029;28;20422;-88
2021/01/15 13:14:44;;;;;;;;;;;0.70;99.90;;;;;;5004332;28;19914;-91
2021/01/15 13:17:13;;;;;;;;;;;0.70;99.90;;;;;;4999138;28;20416;-90
2021/01/15 13:19:41;;;;;;;;;;;0.60;99.90;;;;;;5127248;22;19925;-89
2021/01/15 13:22:09;;;;;;;;;;;0.60;99.90;;;;;;5051011;28;20454;-88
2021/01/15 13:24:35;;;;;;;;;;;0.60;99.90;;;;;;5040562;28;19909;-89
2021/01/15 13:27:29;;;;;;;;;;;0.60;99.90;;;;;;5054045;28;19947;-89
2021/01/15 13:30:08;;;;;;;;;;;0.60;99.90;;;;;;5041754;28;19913;-89
2021/01/15 13:32:36;;;;;;;;;;;0.70;99.90;;;;;;5168394;22;19932;-90
2021/01/15 13:35:02;;;;;;;;;;;0.70;99.90;;;;;;5163409;22;20019;-83
2021/01/15 13:37:28;;;;;;;;;;;0.70;99.90;;;;;;5014353;28;19917;-84
2021/01/15 13:39:54;;;;;;;;;;;0.60;99.90;;;;;;5007592;28;20399;-84
2021/01/15 13:45:44;;;;;;;;;;;0.60;99.90;;;;;;5027039;28;19919;-84
2021/01/15 13:48:11;;;;;;;;;;;0.70;99.90;;;;;;5008486;28;20555;-84
2021/01/15 13:51:05;;;;;;;;;;;0.70;99.90;;;;;;5013489;28;20486;-84
2021/01/15 13:53:42;;;;;;;;;;;0.60;99.90;;;;;;5021747;28;20030;-83
2021/01/15 13:56:08;;;;;;;;;;;0.60;99.90;;;;;;5016720;28;19924;-83
2021/01/15 13:58:34;;;;;;;;;;;0.60;99.90;;;;;;5014003;28;19921;-84
2021/01/15 14:01:26;;;;;;;;;;;;;;;;;;;;;
2021/01/15 14:04:09;;;;;;;;;;;;;;;;;;;;;
2021/01/15 14:07:13;;;;;;;;;;;;;;;;;;;;;
2021/01/15 14:09:47;;;;;;;;;;;0.60;99.90;;;;;;5031085;28;19913;-84
2021/01/15 14:15:35;;;;;;;;;;;;;;;;;;;;;
2021/01/15 14:20:57;;;;;;;;;;;0.60;99.90;;;;;;5033440;28;19913;-84
2021/01/15 14:23:29;;;;;;;;;;;0.60;99.90;;;;;;5007780;28;19986;-84
2021/01/15 14:25:56;;;;;;;;;;;0.70;99.90;;;;;;5013407;28;19919;-85
2021/01/15 14:28:24;;;;;;;;;;;0.70;99.90;;;;;;5013710;28;19966;-84
2021/01/15 14:30:49;;;;;;;;;;;0.70;99.90;;;;;;5010856;28;19920;-84
2021/01/15 14:33:15;;;;;;;;;;;0.70;99.90;;;;;;5010322;28;19912;-85
2021/01/15 14:35:43;;;;;;;;;;;0.70;99.90;;;;;;5013105;28;19925;-85
2021/01/15 14:38:09;;;;;;;;;;;0.70;99.90;;;;;;5012610;28;19909;-84
2021/01/15 14:40:37;;;;;;;;;;;0.70;99.90;;;;;;5013750;28;20276;-85
2021/01/15 14:43:03;;;;;;;;;;;0.70;99.90;;;;;;5149960;23;19974;-91
2021/01/15 14:45:28;;;;;;;;;;;0.60;99.90;;;;;;5054958;28;19963;-89
2021/01/15 14:48:18;;;;;;;;;;;0.60;99.90;;;;;;5056299;28;19916;-90
2021/01/15 14:50:44;;;;;;;;;;;0.70;99.90;;;;;;5071373;28;20211;-90
2021/01/15 14:53:10;;;;;;;;;;;0.80;99.90;;;;;;5050470;28;19912;-90
2021/01/15 14:55:40;;;;;;;;;;;0.80;99.90;;;;;;5081314;28;19927;-90
2021/01/15 14:58:06;;;;;;;;;;;0.80;99.90;;;;;;5045163;28;20275;-90
2021/01/15 15:00:32;;;;;;;;;;;0.80;99.90;;;;;;5055082;28;20408;-92
2021/01/15 15:02:58;;;;;;;;;;;0.70;99.90;;;;;;5043651;28;20003;-91
2021/01/15 15:05:24;;;;;;;;;;;0.70;99.90;;;;;;5048490;28;19912;-91
2021/01/15 15:07:51;;;;;;;;;;;0.60;99.90;;;;;;5055286;28;19912;-92
2021/01/15 15:10:21;;;;;;;;;;;0.60;99.90;;;;;;5162929;22;19929;-78
2021/01/15 15:12:54;;;;;;;;;;;0.60;99.90;;;;;;5189202;22;20001;-85
2021/01/15 15:15:26;;;;;;;;;;;0.60;99.90;;;;;;5063496;28;20365;-85
2021/01/15 15:17:55;;;;;;;;;;;0.60;99.90;;;;;;5066439;28;19916;-85
2021/01/15 15:20:22;;;;;;;;;;;0.60;99.90;;;;;;5060903;28;19919;-85
2021/01/15 15:22:47;;;;;;;;;;;0.60;99.90;;;;;;5155584;22;19979;-84
2021/01/15 15:25:13;;;;;;;;;;;0.60;99.90;;;;;;5031371;28;19940;-85